Time;durP1;ratioP1;P1;durP2;ratioP2;P2;SDS_P1;SDS_P2;PMS_P1;PMS_P2;Temp;Humidity;BMP_temperature;BMP_pressure;BME280_temperature;BME280_humidity;BME280_pressure;Samples;Min_cycle;Max_cycle;Signal;HPM_P1;HPM_P2
2022/03/31 00:00:49;;;;;;;;;;;;;;;21.39;37.78;99984.78;5055729;28;20015;-81
2022/03/31 00:03:18;;;;;;;;;;;;;;;21.38;37.62;99992.22;5037864;28;19921;-81
2022/03/31 00:05:44;;;;;;;;;;;;;;;21.38;37.59;99992.22;5055585;28;19920;-81
2022/03/31 00:08:10;;;;;;;;;;;;;;;21.38;37.71;99991.38;5037823;28;19946;-80
2022/03/31 00:10:37;;;;;;;;;;;;;;;21.38;37.67;99991.38;5037588;28;20361;-80
2022/03/31 00:13:04;;;;;;;;;;;;;;;21.37;37.65;99984.28;5055217;28;20380;-81
2022/03/31 00:15:30;;;;;;;;;;;;;;;21.37;37.52;99990.59;5037630;28;19964;-81
2022/03/31 00:17:55;;;;;;;;;;;;;;;21.36;37.71;99993.66;5071049;28;19920;-81
2022/03/31 00:20:21;;;;;;;;;;;;;;;21.36;37.55;99988.16;5055761;28;19943;-80
2022/03/31 00:22:46;;;;;;;;;;;;;;;21.34;37.44;99985.78;5055248;28;19979;-82
2022/03/31 00:25:11;;;;;;;;;;;;;;;21.35;37.50;99987.38;5055704;28;19917;-81
2022/03/31 00:27:38;;;;;;;;;;;;;;;21.35;37.75;99981.06;5069698;28;19917;-81
2022/03/31 00:30:05;;;;;;;;;;;;;;;21.34;37.64;99980.28;5037425;28;19917;-81
2022/03/31 00:32:30;;;;;;;;;;;;;;;21.33;37.60;99986.88;5055430;28;19970;-82
2022/03/31 00:34:56;;;;;;;;;;;;;;;21.33;37.74;99981.41;5054874;28;19917;-81
2022/03/31 00:37:21;;;;;;;;;;;;;;;21.33;37.48;99988.84;5055120;28;20361;-81
2022/03/31 00:39:48;;;;;;;;;;;;;;;21.33;37.37;99983.34;5070957;28;19973;-79
2022/03/31 00:42:15;;;;;;;;;;;;;;;21.32;37.70;99982.53;5070222;28;19967;-81
2022/03/31 00:44:41;;;;;;;;;;;;;;;21.31;37.64;99969.13;5070154;28;19921;-81
2022/03/31 00:47:07;;;;;;;;;;;;;;;21.31;37.68;99963.63;5055208;28;19923;-81
2022/03/31 00:49:34;;;;;;;;;;;;;;;21.31;37.38;99960.88;5054738;28;20007;-80
2022/03/31 00:51:59;;;;;;;;;;;;;;;21.30;37.59;99971.06;5070199;28;20437;-80
2022/03/31 00:54:27;;;;;;;;;;;;;;;21.30;37.56;99964.78;5036948;28;19920;-85
2022/03/31 00:56:53;;;;;;;;;;;;;;;21.29;37.53;99974.97;5054811;28;20424;-80
2022/03/31 00:59:19;;;;;;;;;;;;;;;21.29;37.58;99974.16;5054999;28;19963;-80
2022/03/31 01:01:45;;;;;;;;;;;;;;;21.29;37.57;99976.91;5054478;28;19917;-81
2022/03/31 01:04:10;;;;;;;;;;;;;;;21.28;37.60;99967.84;5070057;28;20007;-80
2022/03/31 01:06:36;;;;;;;;;;;;;;;21.27;37.35;99968.19;5054526;28;19956;-80
2022/03/31 01:09:02;;;;;;;;;;;;;;;21.27;37.65;99963.50;5054509;28;19924;-80
2022/03/31 01:11:31;;;;;;;;;;;;;;;21.27;37.31;99954.44;5054388;28;19925;-81
2022/03/31 01:13:56;;;;;;;;;;;;;;;21.26;37.41;99955.59;5053357;28;19920;-80
2022/03/31 01:16:22;;;;;;;;;;;;;;;21.25;37.26;99954.00;5036569;28;19967;-80
2022/03/31 01:18:47;;;;;;;;;;;;;;;21.26;37.57;99961.09;5037183;28;19970;-81
2022/03/31 01:21:13;;;;;;;;;;;;;;;21.25;37.45;99954.00;5053457;28;20387;-81
2022/03/31 01:23:38;;;;;;;;;;;;;;;21.25;37.53;99964.97;5036287;28;20424;-80
2022/03/31 01:26:09;;;;;;;;;;;;;;;21.24;37.56;99961.41;5054575;28;19932;-80
2022/03/31 01:28:35;;;;;;;;;;;;;;;21.23;37.47;99951.56;5054697;28;19917;-81
2022/03/31 01:31:00;;;;;;;;;;;;;;;21.24;37.66;99949.63;5052791;28;20296;-82
2022/03/31 01:33:25;;;;;;;;;;;;;;;21.23;37.18;99948.03;5053843;28;19921;-81
2022/03/31 01:35:51;;;;;;;;;;;;;;;21.23;37.59;99939.78;5054057;28;19931;-81
2022/03/31 01:38:18;;;;;;;;;;;;;;;21.22;37.65;99940.91;5054518;28;19925;-80
2022/03/31 01:40:43;;;;;;;;;;;;;;;21.22;37.47;99933.50;5036725;28;19917;-80
2022/03/31 01:43:08;;;;;;;;;;;;;;;21.22;37.60;99932.66;5035981;28;19939;-80
2022/03/31 01:45:34;;;;;;;;;;;;;;;21.22;37.60;99940.91;5036510;28;19931;-80
2022/03/31 01:47:59;;;;;;;;;;;;;;;21.21;37.66;99934.63;5036120;28;19917;-80
2022/03/31 01:50:24;;;;;;;;;;;;;;;21.20;37.59;99935.78;5053909;28;19921;-81
2022/03/31 01:52:49;;;;;;;;;;;;;;;21.20;37.61;99940.47;5053775;28;19921;-80
2022/03/31 01:55:15;;;;;;;;;;;;;;;21.20;37.57;99935.78;5053587;28;19917;-81
2022/03/31 01:57:40;;;;;;;;;;;;;;;21.20;37.47;99948.69;5035757;28;20369;-81
2022/03/31 02:00:06;;;;;;;;;;;;;;;21.18;37.51;99947.06;5069335;28;20015;-82
2022/03/31 02:02:32;;;;;;;;;;;;;;;21.18;37.43;99943.53;5068661;28;19925;-81
2022/03/31 02:04:57;;;;;;;;;;;;;;;21.16;37.49;99938.34;5053768;28;19974;-81
2022/03/31 02:07:23;;;;;;;;;;;;;;;21.17;37.38;99937.25;5036057;28;19916;-81
2022/03/31 02:09:48;;;;;;;;;;;;;;;21.18;37.52;99943.53;5054154;28;19925;-81
2022/03/31 02:12:13;;;;;;;;;;;;;;;21.16;37.67;99940.31;5053397;28;19925;-81
2022/03/31 02:14:41;;;;;;;;;;;;;;;21.16;37.27;99940.31;5053204;28;19921;-80
2022/03/31 02:17:07;;;;;;;;;;;;;;;21.15;37.45;99935.97;5036482;28;19948;-81
2022/03/31 02:19:32;;;;;;;;;;;;;;;21.16;37.67;99937.56;5035730;28;19970;-82
2022/03/31 02:21:57;;;;;;;;;;;;;;;21.14;37.62;99932.41;5052349;28;19925;-81
2022/03/31 02:24:23;;;;;;;;;;;;;;;21.14;37.62;99943.41;5070257;28;19935;-81
2022/03/31 02:26:48;;;;;;;;;;;;;;;21.14;37.37;99937.09;5053717;28;19945;-81
2022/03/31 02:29:14;;;;;;;;;;;;;;;21.13;37.58;99940.97;5035819;28;19925;-81
2022/03/31 02:31:39;;;;;;;;;;;;;;;21.12;37.65;99922.91;5053940;28;20349;-81
2022/03/31 02:34:05;;;;;;;;;;;;;;;21.12;37.40;99920.16;5053457;28;20367;-81
2022/03/31 02:36:30;;;;;;;;;;;;;;;21.12;37.40;99920.16;5035324;28;19924;-81
2022/03/31 02:38:56;;;;;;;;;;;;;;;21.11;37.27;99910.28;5069003;28;19955;-82
2022/03/31 02:41:21;;;;;;;;;;;;;;;21.10;37.03;99908.69;5053485;28;20393;-81
2022/03/31 02:43:46;;;;;;;;;;;;;;;21.10;37.48;99905.97;5053513;28;19948;-80
2022/03/31 02:46:12;;;;;;;;;;;;;;;21.11;37.53;99910.28;5052940;28;19917;-80
2022/03/31 02:48:37;;;;;;;;;;;;;;;21.09;37.52;99910.66;5053834;28;19938;-80
2022/03/31 02:51:02;;;;;;;;;;;;;;;21.09;37.41;99910.66;5036784;28;20270;-80
2022/03/31 02:56:11;;;;;;;;;;;;;;;21.07;37.47;99899.19;5057124;28;19975;-81
2022/03/31 02:58:36;;;;;;;;;;;;;;;21.08;37.59;99910.97;5038967;28;19934;-81
2022/03/31 03:01:02;;;;;;;;;;;;;;;21.08;37.55;99911.78;5071905;28;19921;-81
2022/03/31 03:03:28;;;;;;;;;;;;;;;21.06;37.47;99905.81;5072387;28;19928;-81
2022/03/31 03:05:54;;;;;;;;;;;;;;;21.06;37.36;99903.06;5073465;28;20349;-81
2022/03/31 03:08:19;;;;;;;;;;;;;;;21.05;37.40;99904.22;5056541;28;19917;-81
2022/03/31 03:10:45;;;;;;;;;;;;;;;21.05;37.28;99909.69;5056414;28;19917;-80
2022/03/31 03:13:10;;;;;;;;;;;;;;;21.05;37.47;99908.91;5072063;28;19971;-80
2022/03/31 03:15:36;;;;;;;;;;;;;;;21.05;37.47;99914.38;5056603;28;19916;-82
2022/03/31 03:18:02;;;;;;;;;;;;;;;21.05;37.22;99915.19;5038956;28;19971;-81
2022/03/31 03:20:27;;;;;;;;;;;;;;;21.04;37.62;99913.59;5038804;28;19970;-81
2022/03/31 03:22:53;;;;;;;;;;;;;;;21.03;37.43;99920.19;5071738;28;19917;-81
2022/03/31 03:25:19;;;;;;;;;;;;;;;21.03;37.49;99917.47;5056892;28;19951;-81
2022/03/31 03:27:48;;;;;;;;;;;;;;;21.01;37.33;99911.50;5055411;28;19953;-81
2022/03/31 03:30:14;;;;;;;;;;;;;;;21.02;37.49;99920.56;5055048;28;19948;-81
2022/03/31 03:32:39;;;;;;;;;;;;;;;21.02;37.58;99921.34;5039145;28;19921;-83
2022/03/31 03:35:06;;;;;;;;;;;;;;;21.02;37.13;99909.56;5056097;28;19952;-82
2022/03/31 03:37:31;;;;;;;;;;;;;;;21.01;37.31;99924.41;5056110;28;20450;-82
2022/03/31 03:39:56;;;;;;;;;;;;;;;21.00;37.21;99915.38;5038459;28;19990;-82
2022/03/31 03:42:22;;;;;;;;;;;;;;;21.00;37.32;99922.81;5056328;28;20013;-82
2022/03/31 03:44:47;;;;;;;;;;;;;;;21.00;37.43;99926.38;5055904;28;19917;-82
2022/03/31 03:47:12;;;;;;;;;;;;;;;20.99;37.22;99919.28;5055116;28;20387;-82
2022/03/31 03:49:37;;;;;;;;;;;;;;;20.99;37.25;99912.97;5071508;28;20281;-85
2022/03/31 03:52:03;;;;;;;;;;;;;;;20.98;37.52;99906.66;5055752;28;20015;-82
2022/03/31 03:54:28;;;;;;;;;;;;;;;20.97;37.44;99905.06;5055917;28;19921;-82
2022/03/31 03:56:53;;;;;;;;;;;;;;;20.96;37.32;99904.28;5055875;28;20376;-81
2022/03/31 03:59:19;;;;;;;;;;;;;;;20.96;37.66;99915.25;5071971;28;19921;-82
2022/03/31 04:01:44;;;;;;;;;;;;;;;20.96;37.20;99915.25;5071477;28;19971;-82
2022/03/31 04:04:10;;;;;;;;;;;;;;;20.96;37.33;99917.19;5056180;28;19967;-84
2022/03/31 04:06:36;;;;;;;;;;;;;;;20.95;37.36;99916.38;5056038;28;19921;-83
2022/03/31 04:09:01;;;;;;;;;;;;;;;20.94;37.39;99913.94;5055396;28;19921;-82
2022/03/31 04:11:26;;;;;;;;;;;;;;;20.94;37.40;99916.69;5071020;28;19964;-82
2022/03/31 04:13:51;;;;;;;;;;;;;;;20.94;37.04;99922.19;5055111;28;19928;-82
2022/03/31 04:16:16;;;;;;;;;;;;;;;20.92;37.33;99917.03;5054201;28;19927;-81
2022/03/31 04:18:42;;;;;;;;;;;;;;;20.92;37.29;99919.78;5055987;28;20414;-82
2022/03/31 04:21:07;;;;;;;;;;;;;;;20.92;37.41;99913.50;5071344;28;19921;-81
2022/03/31 04:23:32;;;;;;;;;;;;;;;20.91;37.43;99912.69;5053960;28;19932;-81
2022/03/31 04:25:58;;;;;;;;;;;;;;;20.91;37.04;99917.38;5070678;28;20270;-81
2022/03/31 04:28:23;;;;;;;;;;;;;;;20.90;37.29;99916.56;5071093;28;19923;-82
2022/03/31 04:30:48;;;;;;;;;;;;;;;20.90;37.12;99910.28;5070971;28;19928;-82
2022/03/31 04:33:13;;;;;;;;;;;;;;;20.89;37.12;99920.47;5054072;28;19924;-81
2022/03/31 04:35:39;;;;;;;;;;;;;;;20.89;37.18;99916.88;5070699;28;20417;-82
2022/03/31 04:38:04;;;;;;;;;;;;;;;20.89;37.22;99914.16;5070377;28;19924;-81
2022/03/31 04:40:29;;;;;;;;;;;;;;;20.88;37.32;99912.53;5055051;28;20385;-83
2022/03/31 04:42:55;;;;;;;;;;;;;;;20.86;37.28;99926.59;5037416;28;20061;-81
2022/03/31 04:45:20;;;;;;;;;;;;;;;20.87;37.27;99919.19;5055158;28;19924;-81
2022/03/31 04:47:46;;;;;;;;;;;;;;;20.86;37.14;99921.09;5055057;28;19916;-81
2022/03/31 04:50:12;;;;;;;;;;;;;;;20.87;37.19;99913.69;5054873;28;19963;-82
2022/03/31 04:52:37;;;;;;;;;;;;;;;20.86;37.19;99920.31;5037777;28;20245;-82
2022/03/31 04:55:03;;;;;;;;;;;;;;;20.85;37.25;99915.97;5053870;28;20325;-82
2022/03/31 04:57:28;;;;;;;;;;;;;;;20.83;37.04;99916.28;5036877;28;20006;-81
2022/03/31 04:59:53;;;;;;;;;;;;;;;20.83;37.30;99915.47;5054414;28;20436;-81
2022/03/31 05:02:19;;;;;;;;;;;;;;;20.83;37.27;99915.47;5036943;28;19983;-81
2022/03/31 05:04:44;;;;;;;;;;;;;;;20.82;37.33;99919.38;5070050;28;19925;-81
2022/03/31 05:07:09;;;;;;;;;;;;;;;20.81;37.17;99926.78;5036545;28;19921;-82
2022/03/31 05:09:34;;;;;;;;;;;;;;;20.80;37.32;99922.44;5037236;28;20340;-80
2022/03/31 05:12:00;;;;;;;;;;;;;;;20.79;37.25;99915.34;5037286;28;19925;-82
2022/03/31 05:14:25;;;;;;;;;;;;;;;20.80;37.28;99913.41;5052755;28;19927;-81
2022/03/31 05:16:50;;;;;;;;;;;;;;;20.78;37.17;99913.72;5054289;28;20364;-81
2022/03/31 05:19:16;;;;;;;;;;;;;;;20.79;37.05;99920.00;5069752;28;19921;-81
2022/03/31 05:21:41;;;;;;;;;;;;;;;20.78;37.27;99918.41;5036279;28;19920;-81
2022/03/31 05:24:07;;;;;;;;;;;;;;;20.78;37.42;99921.16;5036285;28;19921;-81
2022/03/31 05:26:32;;;;;;;;;;;;;;;20.78;37.34;99919.22;5054263;28;19921;-81
2022/03/31 05:28:57;;;;;;;;;;;;;;;20.78;37.10;99916.47;5035943;28;19917;-81
2022/03/31 05:31:23;;;;;;;;;;;;;;;20.77;37.03;99922.31;5069744;28;19920;-81
2022/03/31 05:33:48;;;;;;;;;;;;;;;20.77;37.10;99911.34;5054414;28;19971;-82
2022/03/31 05:36:13;;;;;;;;;;;;;;;20.74;37.26;99905.38;5070019;28;20020;-81
2022/03/31 05:38:38;;;;;;;;;;;;;;;20.76;37.23;99907.75;5069182;28;20285;-82
2022/03/31 05:41:04;;;;;;;;;;;;;;;20.75;37.23;99900.69;5035996;28;19931;-81
2022/03/31 05:43:29;;;;;;;;;;;;;;;20.74;37.26;99910.06;5035981;28;19920;-82
2022/03/31 05:45:55;;;;;;;;;;;;;;;20.73;37.07;99906.47;5069667;28;20015;-83
2022/03/31 05:48:20;;;;;;;;;;;;;;;20.74;37.17;99918.28;5053910;28;19917;-81
2022/03/31 05:50:45;;;;;;;;;;;;;;;20.73;37.12;99911.97;5053636;28;19967;-81
2022/03/31 05:53:10;;;;;;;;;;;;;;;20.73;37.18;99911.97;5036295;28;20011;-81
2022/03/31 05:55:36;;;;;;;;;;;;;;;20.73;37.36;99922.16;5069287;28;20281;-80
2022/03/31 05:58:02;;;;;;;;;;;;;;;20.72;37.20;99907.63;5053623;28;20062;-82
2022/03/31 06:00:28;;;;;;;;;;;;;;;20.71;37.32;99914.28;5035946;28;20361;-80
2022/03/31 06:02:55;;;;;;;;;;;;;;;20.71;37.05;99913.44;5053526;28;19923;-80
2022/03/31 06:05:20;;;;;;;;;;;;;;;20.71;36.99;99914.28;5052528;28;19921;-83
2022/03/31 06:07:46;;;;;;;;;;;;;;;20.71;37.07;99919.75;5053797;28;20103;-82
2022/03/31 06:10:12;;;;;;;;;;;;;;;20.71;37.25;99918.94;5054156;28;19917;-81
2022/03/31 06:12:37;;;;;;;;;;;;;;;20.70;37.27;99918.13;5053831;28;19946;-81
2022/03/31 06:15:06;;;;;;;;;;;;;;;20.70;37.35;99918.13;5054321;28;20346;-81
2022/03/31 06:17:33;;;;;;;;;;;;;;;20.70;37.37;99912.63;5052470;28;19921;-81
2022/03/31 06:19:58;;;;;;;;;;;;;;;20.70;37.21;99911.84;5053001;28;20041;-82
2022/03/31 06:22:23;;;;;;;;;;;;;;;20.69;37.19;99913.00;5052204;28;20012;-81
2022/03/31 06:24:48;;;;;;;;;;;;;;;20.68;37.17;99906.66;5035993;28;19921;-83
2022/03/31 06:27:14;;;;;;;;;;;;;;;20.69;37.25;99908.31;5073003;28;20353;-79
2022/03/31 06:29:41;;;;;;;;;;;;;;;20.68;37.14;99909.41;5057460;28;19917;-78
2022/03/31 06:32:06;;;;;;;;;;;;;;;20.69;37.15;99907.50;5057115;28;20363;-79
2022/03/31 06:34:32;;;;;;;;;;;;;;;20.67;37.28;99913.31;5039850;28;19956;-80
2022/03/31 06:36:57;;;;;;;;;;;;;;;20.68;37.13;99920.41;5072287;28;19925;-79
2022/03/31 06:39:22;;;;;;;;;;;;;;;20.67;37.36;99918.78;5056162;28;19925;-84
2022/03/31 06:41:48;;;;;;;;;;;;;;;20.68;37.32;99928.63;5057322;28;19925;-82
2022/03/31 06:44:15;;;;;;;;;;;;;;;20.68;37.33;99925.88;5072663;28;20265;-81
2022/03/31 06:46:41;;;;;;;;;;;;;;;20.68;37.21;99931.38;5039604;28;19927;-81
2022/03/31 06:49:07;;;;;;;;;;;;;;;20.67;37.26;99927.03;5039185;28;20003;-80
2022/03/31 06:51:33;;;;;;;;;;;;;;;20.67;37.38;99929.78;5057164;28;19917;-78
2022/03/31 06:53:59;;;;;;;;;;;;;;;20.68;37.28;99919.59;5057064;28;19921;-83
2022/03/31 06:56:27;;;;;;;;;;;;;;;20.68;37.58;99923.13;5072121;28;20024;-80
2022/03/31 06:58:56;;;;;;;;;;;;;;;20.68;37.44;99917.66;5056839;28;19928;-81
2022/03/31 07:01:21;;;;;;;;;;;;;;;20.68;37.25;99917.66;5056697;28;20269;-82
2022/03/31 07:03:46;;;;;;;;;;;;;;;20.67;37.43;99921.53;5056906;28;19923;-81
2022/03/31 07:06:12;;;;;;;;;;;;;;;20.69;37.52;99927.50;5055337;28;20272;-81
2022/03/31 07:08:37;;;;;;;;;;;;;;;20.68;37.39;99919.59;5055913;28;19920;-82
2022/03/31 07:11:03;;;;;;;;;;;;;;;20.69;37.76;99930.25;5056560;28;19916;-82
2022/03/31 07:13:29;;;;;;;;;;;;;;;20.68;37.45;99927.81;5039280;28;19958;-81
2022/03/31 07:15:54;;;;;;;;;;;;;;;20.67;37.48;99928.97;5057202;28;20468;-87
2022/03/31 07:18:19;;;;;;;;;;;;;;;20.63;37.55;99934.31;5056627;28;20459;-83
2022/03/31 07:20:45;;;;;;;;;;;;;;;20.58;37.51;99923.50;5056643;28;19921;-81
2022/03/31 07:23:10;;;;;;;;;;;;;;;20.57;37.88;99919.16;5056634;28;20435;-80
2022/03/31 07:25:35;;;;;;;;;;;;;;;20.56;37.96;99920.28;5038438;28;19971;-84
2022/03/31 07:28:01;;;;;;;;;;;;;;;20.55;37.91;99915.94;5056289;28;19917;-81
2022/03/31 07:30:27;;;;;;;;;;;;;;;20.56;38.16;99920.28;5056206;28;19947;-83
2022/03/31 07:32:54;;;;;;;;;;;;;;;20.57;38.10;99918.38;5055861;28;20023;-81
2022/03/31 07:35:21;;;;;;;;;;;;;;;20.59;38.28;99921.56;5037867;28;20051;-83
2022/03/31 07:37:47;;;;;;;;;;;;;;;20.63;38.12;99925.28;5055708;28;20031;-84
2022/03/31 07:40:13;;;;;;;;;;;;;;;20.67;38.14;99920.75;5038872;28;20365;-84
2022/03/31 07:42:38;;;;;;;;;;;;;;;20.72;38.01;99915.88;5038130;28;19923;-83
2022/03/31 07:45:04;;;;;;;;;;;;;;;20.75;38.06;99920.69;5037777;28;20011;-83
2022/03/31 07:47:29;;;;;;;;;;;;;;;20.77;38.05;99923.09;5056093;28;19974;-84
2022/03/31 07:49:54;;;;;;;;;;;;;;;20.79;38.20;99917.28;5054953;28;19926;-92
2022/03/31 07:52:21;;;;;;;;;;;;;;;20.81;38.16;99920.50;5072282;28;19924;-84
2022/03/31 07:54:47;;;;;;;;;;;;;;;20.82;37.87;99919.38;5037918;28;20106;-83
2022/03/31 07:57:12;;;;;;;;;;;;;;;20.84;38.00;99915.16;5056074;28;20041;-84
2022/03/31 07:59:37;;;;;;;;;;;;;;;20.87;37.94;99914.50;5055793;28;20029;-82
2022/03/31 08:02:03;;;;;;;;;;;;;;;20.89;37.91;99909.47;5070815;28;20383;-85
2022/03/31 08:04:28;;;;;;;;;;;;;;;20.92;37.92;99911.56;5054343;28;20011;-83
2022/03/31 08:06:54;;;;;;;;;;;;;;;20.94;37.86;99919.44;5055802;28;19917;-86
2022/03/31 08:09:21;;;;;;;;;;;;;;;20.95;37.90;99913.63;5071437;28;19921;-82
2022/03/31 08:11:47;;;;;;;;;;;;;;;20.96;37.96;99917.19;5055590;28;19926;-83
2022/03/31 08:14:16;;;;;;;;;;;;;;;20.99;37.76;99910.22;5071087;28;20334;-85
2022/03/31 08:16:42;;;;;;;;;;;;;;;20.99;37.62;99911.03;5070189;28;20327;-83
2022/03/31 08:19:08;;;;;;;;;;;;;;;20.99;37.65;99911.03;5055470;28;19944;-81
2022/03/31 08:21:33;;;;;;;;;;;;;;;20.96;37.77;99909.75;5056099;28;20299;-80
2022/03/31 08:23:58;;;;;;;;;;;;;;;20.96;37.70;99914.44;5070559;28;19921;-82
2022/03/31 08:26:25;;;;;;;;;;;;;;;20.95;37.94;99913.63;5037614;28;19967;-86
2022/03/31 08:28:50;;;;;;;;;;;;;;;20.95;38.00;99923.81;5070347;28;20296;-84
2022/03/31 08:31:15;;;;;;;;;;;;;;;20.96;38.12;99914.44;5070465;28;19954;-83
2022/03/31 08:33:42;;;;;;;;;;;;;;;20.97;38.24;99921.53;5053984;28;20365;-81
2022/03/31 08:36:08;;;;;;;;;;;;;;;21.00;38.00;99920.06;5055156;28;19943;-81
2022/03/31 08:38:33;;;;;;;;;;;;;;;21.00;38.25;99915.38;5055306;28;20315;-81
2022/03/31 08:40:59;;;;;;;;;;;;;;;21.02;38.17;99920.56;5036966;28;19975;-81
2022/03/31 08:43:26;;;;;;;;;;;;;;;21.02;38.13;99918.59;5069932;28;19939;-83
2022/03/31 08:45:55;;;;;;;;;;;;;;;21.03;38.33;99922.94;5036457;28;20380;-80
2022/03/31 08:48:21;;;;;;;;;;;;;;;21.05;38.21;99923.44;5053834;28;19956;-85
2022/03/31 08:50:47;;;;;;;;;;;;;;;21.06;38.24;99925.03;5036756;28;19917;-83
2022/03/31 08:53:12;;;;;;;;;;;;;;;21.08;38.36;99928.25;5036890;28;19916;-82
2022/03/31 08:55:37;;;;;;;;;;;;;;;21.09;38.05;99923.56;5054478;28;19928;-83
2022/03/31 08:58:02;;;;;;;;;;;;;;;21.10;38.32;99925.97;5069624;28;19936;-82
2022/03/31 09:00:28;;;;;;;;;;;;;;;21.11;38.29;99918.53;5069676;28;19970;-83
2022/03/31 09:02:53;;;;;;;;;;;;;;;21.12;38.37;99912.72;5036069;28;19920;-85
2022/03/31 09:05:18;;;;;;;;;;;;;;;21.14;38.24;99924.19;5053943;28;19960;-86
2022/03/31 09:07:54;;;;;;;;;;;;;;;21.16;38.21;99924.63;5036226;28;19928;-82
2022/03/31 09:10:47;;;;;;;;;;;;;;;21.17;38.45;99926.25;5036275;28;20019;-82
2022/03/31 09:13:32;;;;;;;;;;;;;;;21.19;38.44;99931.41;5051402;28;19924;-83
2022/03/31 09:15:57;;;;;;;;;;;;;;;21.22;38.25;99932.66;5053916;28;20314;-82
2022/03/31 09:18:24;;;;;;;;;;;;;;;21.23;38.52;99926.06;5053659;28;19917;-80
2022/03/31 09:20:50;;;;;;;;;;;;;;;21.26;38.56;99928.13;5053526;28;20322;-82
2022/03/31 09:23:17;;;;;;;;;;;;;;;21.27;38.55;99924.22;5035954;28;19957;-82
2022/03/31 09:25:43;;;;;;;;;;;;;;;21.28;38.39;99914.88;5035931;28;19964;-84
2022/03/31 09:28:16;;;;;;;;;;;;;;;21.30;38.22;99921.63;5069056;28;19967;-85
2022/03/31 09:31:00;;;;;;;;;;;;;;;21.31;38.29;99933.41;5035572;28;20387;-84
2022/03/31 09:33:26;;;;;;;;;;;;;;;21.33;38.45;99925.66;5053435;28;20336;-81
2022/03/31 09:35:58;;;;;;;;;;;;;;;21.33;38.51;99923.72;5053316;28;20391;-81
2022/03/31 09:38:23;;;;;;;;;;;;;;;21.35;38.34;99926.13;5053285;28;19929;-82
2022/03/31 09:40:48;;;;;;;;;;;;;;;21.37;38.32;99921.09;5069002;28;19958;-82
2022/03/31 09:43:14;;;;;;;;;;;;;;;21.39;38.44;99921.59;5053520;28;19920;-81
2022/03/31 09:45:40;;;;;;;;;;;;;;;21.41;38.46;99910.28;5068931;28;20329;-82
2022/03/31 09:48:08;;;;;;;;;;;;;;;21.43;38.47;99913.50;5035548;28;19925;-82
2022/03/31 09:50:34;;;;;;;;;;;;;;;21.43;38.46;99911.53;5035794;28;20089;-81
2022/03/31 09:53:00;;;;;;;;;;;;;;;21.45;38.44;99903.78;5053349;28;20395;-81
2022/03/31 09:55:25;;;;;;;;;;;;;;;21.46;38.27;99913.63;5035709;28;19931;-83
2022/03/31 09:57:51;;;;;;;;;;;;;;;21.46;38.03;99908.13;5053543;28;20046;-80
2022/03/31 10:00:17;;;;;;;;;;;;;;;21.47;38.20;99909.75;5053694;28;19921;-80
2022/03/31 10:02:44;;;;;;;;;;;;;;;21.48;38.15;99908.59;5035516;28;19925;-82
2022/03/31 10:05:09;;;;;;;;;;;;;;;21.49;38.32;99906.63;5035257;28;19943;-80
2022/03/31 10:07:35;;;;;;;;;;;;;;;21.50;38.39;99909.06;5053615;28;20007;-80
2022/03/31 10:10:00;;;;;;;;;;;;;;;21.51;38.46;99910.66;5069110;28;20014;-81
2022/03/31 10:12:32;;;;;;;;;;;;;;;21.53;38.13;99911.13;5053445;28;20276;-79
2022/03/31 10:15:01;;;;;;;;;;;;;;;21.55;38.17;99917.09;5035857;28;19971;-81
2022/03/31 10:17:27;;;;;;;;;;;;;;;21.57;38.22;99911.25;5053172;28;20334;-82
2022/03/31 10:19:53;;;;;;;;;;;;;;;21.57;37.98;99903.00;5036136;28;19955;-81
2022/03/31 10:25:08;;;;;;;;;;;;;;;21.55;38.33;99911.59;5053614;28;19923;-82
2022/03/31 10:27:35;;;;;;;;;;;;;;;21.57;38.04;99911.25;5035906;28;19920;-82
2022/03/31 10:30:20;;;;;;;;;;;;;;;21.57;38.43;99912.06;5052935;28;19981;-81
2022/03/31 10:32:53;;;;;;;;;;;;;;;21.58;38.27;99910.13;5035119;28;20020;-81
2022/03/31 10:35:26;;;;;;;;;;;;;;;21.59;37.99;99911.72;5035255;28;19952;-81
2022/03/31 10:37:52;;;;;;;;;;;;;;;21.60;38.12;99908.66;5035198;28;19927;-80
2022/03/31 10:40:28;;;;;;;;;;;;;;;21.61;38.24;99907.50;5053010;28;20007;-81
2022/03/31 10:42:55;;;;;;;;;;;;;;;21.63;38.32;99911.88;5053071;28;19931;-81
2022/03/31 10:45:20;;;;;;;;;;;;;;;21.64;38.13;99911.50;5053424;28;19925;-81
2022/03/31 10:47:45;;;;;;;;;;;;;;;21.65;38.17;99912.34;5052961;28;19971;-81
2022/03/31 10:50:25;;;;;;;;;;;;;;;21.65;37.97;99902.16;5035095;28;19928;-82
2022/03/31 10:53:16;;;;;;;;;;;;;;;21.67;37.80;99896.28;5035630;28;20346;-82
2022/03/31 10:55:47;;;;;;;;;;;;;;;21.66;38.01;99891.94;5050109;28;20009;-81
2022/03/31 10:58:20;;;;;;;;;;;;;;;21.68;37.77;99890.47;5052738;28;19963;-82
2022/03/31 11:00:45;;;;;;;;;;;;;;;21.68;38.16;99889.69;5052820;28;20003;-82
2022/03/31 11:03:10;;;;;;;;;;;;;;;21.69;37.72;99892.06;5052760;28;19960;-82
2022/03/31 11:05:39;;;;;;;;;;;;;;;21.69;37.92;99892.06;5068591;28;20242;-82
2022/03/31 11:08:04;;;;;;;;;;;;;;;21.71;37.91;99883.50;5053204;28;19927;-80
2022/03/31 11:10:40;;;;;;;;;;;;;;;21.70;37.98;99882.69;5034844;28;20037;-81
2022/03/31 11:13:05;;;;;;;;;;;;;;;21.71;37.83;99880.75;5037878;28;19967;-81
2022/03/31 11:15:31;;;;;;;;;;;;;;;21.70;37.75;99877.19;5056488;28;19924;-81
2022/03/31 11:18:00;;;;;;;;;;;;;;;21.72;37.78;99879.59;5038261;28;19927;-81
2022/03/31 11:20:26;;;;;;;;;;;;;;;21.72;37.98;99874.09;5038483;28;19948;-82
2022/03/31 11:22:55;;;;;;;;;;;;;;;21.73;37.90;99879.25;5038314;28;19954;-81
2022/03/31 11:25:21;;;;;;;;;;;;;;;21.74;37.76;99877.31;5056331;28;19924;-82
2022/03/31 11:27:47;;;;;;;;;;;;;;;21.74;37.68;99877.31;5055816;28;19924;-81
2022/03/31 11:30:14;;;;;;;;;;;;;;;21.75;37.58;99878.94;5038525;28;19917;-81
2022/03/31 11:32:41;;;;;;;;;;;;;;;21.76;37.99;99869.53;5037876;28;19975;-83
2022/03/31 11:35:14;;;;;;;;;;;;;;;21.75;37.85;99868.75;5056923;28;19917;-83
2022/03/31 11:37:53;;;;;;;;;;;;;;;21.76;37.89;99864.03;5037847;28;19968;-86
2022/03/31 11:40:19;;;;;;;;;;;;;;;21.76;37.80;99866.78;5055724;28;19917;-82
2022/03/31 11:42:45;;;;;;;;;;;;;;;21.76;37.72;99870.34;5056079;28;19963;-83
2022/03/31 11:45:10;;;;;;;;;;;;;;;21.78;37.84;99864.50;5072662;28;19952;-82
2022/03/31 11:47:35;;;;;;;;;;;;;;;21.79;37.66;99866.09;5055898;28;19932;-83
2022/03/31 11:50:01;;;;;;;;;;;;;;;21.80;37.79;99864.97;5054765;28;20373;-82
2022/03/31 11:52:31;;;;;;;;;;;;;;;21.80;37.74;99863.03;5038331;28;19978;-83
2022/03/31 11:54:59;;;;;;;;;;;;;;;21.80;37.87;99868.53;5038050;28;19971;-83
2022/03/31 11:57:25;;;;;;;;;;;;;;;21.81;37.55;99867.38;5055514;28;19925;-82
2022/03/31 11:59:51;;;;;;;;;;;;;;;21.82;37.77;99869.00;5054701;28;20280;-84
2022/03/31 12:02:17;;;;;;;;;;;;;;;21.85;37.44;99869.44;5070876;28;20063;-82
2022/03/31 12:04:44;;;;;;;;;;;;;;;21.84;37.56;99865.88;5037850;28;19955;-81
2022/03/31 12:07:11;;;;;;;;;;;;;;;21.84;37.76;99868.63;5055565;28;20369;-83
2022/03/31 12:09:41;;;;;;;;;;;;;;;21.85;37.58;99866.69;5055985;28;19944;-82
2022/03/31 12:12:09;;;;;;;;;;;;;;;21.85;37.58;99864.75;5055190;28;20003;-83
2022/03/31 12:14:36;;;;;;;;;;;;;;;21.85;37.57;99866.69;5037410;28;19960;-82
2022/03/31 12:17:01;;;;;;;;;;;;;;;21.85;37.72;99867.50;5037408;28;20019;-83
2022/03/31 12:19:36;;;;;;;;;;;;;;;21.85;37.69;99866.69;5037265;28;19956;-82
2022/03/31 12:22:02;;;;;;;;;;;;;;;21.85;37.49;99859.25;5037130;28;19923;-83
2022/03/31 12:24:27;;;;;;;;;;;;;;;21.88;37.64;99866.03;5053913;28;20008;-84
2022/03/31 12:26:54;;;;;;;;;;;;;;;21.88;37.82;99861.31;5070723;28;20388;-83
2022/03/31 12:29:20;;;;;;;;;;;;;;;21.88;37.41;99849.53;5054901;28;19940;-84
2022/03/31 12:31:45;;;;;;;;;;;;;;;21.90;37.48;99860.97;5055575;28;19916;-83
2022/03/31 12:34:12;;;;;;;;;;;;;;;21.90;37.67;99858.22;5070862;28;19921;-82
2022/03/31 12:36:37;;;;;;;;;;;;;;;21.91;37.54;99854.34;5054747;28;19924;-83
2022/03/31 12:39:04;;;;;;;;;;;;;;;21.91;37.66;99857.09;5055493;28;19920;-86
2022/03/31 12:41:33;;;;;;;;;;;;;;;21.92;37.35;99853.19;5037248;28;19917;-86
2022/03/31 12:44:00;;;;;;;;;;;;;;;21.91;37.65;99844.16;5037472;28;19924;-83
2022/03/31 12:46:28;;;;;;;;;;;;;;;21.92;37.84;99848.47;5037003;28;19921;-85
2022/03/31 12:49:19;;;;;;;;;;;;;;;21.92;37.69;99848.47;5037333;28;20368;-87